Stony Creek Mills, Pennsylvania
Current Conditions -  °F | °C
As of 9:54 PM on Saturday 25 Oct 2014 (Local Time) from KRDG Reporting Station
Clear Clear  
Wind Chill: 60°   Ceiling: Unl
Heat Index: 60°   Visibility: 10mi
Dew Point: 44°   Wind: 6mph
Humidity: 55%   Direction: 220°SW
Pressure: 29.63"   Gusts: NA
Location:  40.3351°N, 75.8521°W
Report Text: KRDG 260154Z AUTO 22005KT 10SM CLR 16/07 A2963 RMK AO2 SLP038 T01560067
Loading
Personal Weather Stations






























Interactive Weather Map
Tropical Storm Tracking
New forecast layout! Learn more

10-Day Weather Forecast

Advertisements
Track Severe Weather on mobile